sensor_id;sensor_type;location;lat;lon;timestamp;P1;durP1;ratioP1;P2;durP2;ratioP2
35562;SDS011;21665;40.108;18.302;2023-06-19T00:02:04;15.93;;;14.93;;
35562;SDS011;21665;40.108;18.302;2023-06-19T00:04:30;16.25;;;15.15;;
35562;SDS011;21665;40.108;18.302;2023-06-19T00:07:00;17.35;;;15.70;;
35562;SDS011;21665;40.108;18.302;2023-06-19T00:09:27;15.90;;;14.80;;
35562;SDS011;21665;40.108;18.302;2023-06-19T00:11:53;16.30;;;14.93;;
35562;SDS011;21665;40.108;18.302;2023-06-19T00:14:20;15.73;;;14.52;;
35562;SDS011;21665;40.108;18.302;2023-06-19T00:16:46;15.60;;;14.25;;
35562;SDS011;21665;40.108;18.302;2023-06-19T00:19:13;16.17;;;14.63;;
35562;SDS011;21665;40.108;18.302;2023-06-19T00:21:39;15.30;;;14.18;;
35562;SDS011;21665;40.108;18.302;2023-06-19T00:24:08;15.85;;;14.55;;
35562;SDS011;21665;40.108;18.302;2023-06-19T00:26:37;14.65;;;13.65;;
35562;SDS011;21665;40.108;18.302;2023-06-19T00:29:03;14.95;;;13.77;;
35562;SDS011;21665;40.108;18.302;2023-06-19T00:31:30;14.43;;;13.23;;
35562;SDS011;21665;40.108;18.302;2023-06-19T00:33:57;14.43;;;13.35;;
35562;SDS011;21665;40.108;18.302;2023-06-19T00:36:24;14.10;;;12.90;;
35562;SDS011;21665;40.108;18.302;2023-06-19T00:38:52;14.15;;;13.20;;
35562;SDS011;21665;40.108;18.302;2023-06-19T00:41:18;14.00;;;12.90;;
35562;SDS011;21665;40.108;18.302;2023-06-19T00:43:47;14.05;;;12.85;;
35562;SDS011;21665;40.108;18.302;2023-06-19T00:46:13;13.93;;;12.73;;
35562;SDS011;21665;40.108;18.302;2023-06-19T00:48:40;13.48;;;12.48;;
35562;SDS011;21665;40.108;18.302;2023-06-19T00:51:07;13.48;;;12.38;;
35562;SDS011;21665;40.108;18.302;2023-06-19T00:53:33;13.25;;;12.10;;
35562;SDS011;21665;40.108;18.302;2023-06-19T00:56:00;12.77;;;11.80;;
35562;SDS011;21665;40.108;18.302;2023-06-19T00:58:27;13.50;;;12.13;;
35562;SDS011;21665;40.108;18.302;2023-06-19T01:00:54;12.57;;;11.48;;
35562;SDS011;21665;40.108;18.302;2023-06-19T01:03:23;12.73;;;11.38;;
35562;SDS011;21665;40.108;18.302;2023-06-19T01:05:52;12.10;;;11.10;;
35562;SDS011;21665;40.108;18.302;2023-06-19T01:08:43;11.80;;;10.80;;
35562;SDS011;21665;40.108;18.302;2023-06-19T01:11:24;12.23;;;11.05;;
35562;SDS011;21665;40.108;18.302;2023-06-19T01:13:59;12.13;;;10.95;;
35562;SDS011;21665;40.108;18.302;2023-06-19T01:16:35;12.30;;;11.07;;
35562;SDS011;21665;40.108;18.302;2023-06-19T01:19:02;11.40;;;10.50;;
35562;SDS011;21665;40.108;18.302;2023-06-19T01:21:32;11.45;;;10.65;;
35562;SDS011;21665;40.108;18.302;2023-06-19T01:23:59;11.45;;;10.45;;
35562;SDS011;21665;40.108;18.302;2023-06-19T01:26:25;11.07;;;10.18;;
35562;SDS011;21665;40.108;18.302;2023-06-19T01:28:53;11.57;;;10.50;;
35562;SDS011;21665;40.108;18.302;2023-06-19T01:31:24;10.77;;;10.10;;
35562;SDS011;21665;40.108;18.302;2023-06-19T01:34:19;11.60;;;10.70;;
35562;SDS011;21665;40.108;18.302;2023-06-19T01:36:47;11.02;;;10.23;;
35562;SDS011;21665;40.108;18.302;2023-06-19T01:39:17;11.88;;;10.90;;
35562;SDS011;21665;40.108;18.302;2023-06-19T01:41:45;11.73;;;10.68;;
35562;SDS011;21665;40.108;18.302;2023-06-19T01:44:13;12.00;;;11.20;;
35562;SDS011;21665;40.108;18.302;2023-06-19T01:46:39;12.38;;;11.40;;
35562;SDS011;21665;40.108;18.302;2023-06-19T01:49:09;12.15;;;11.23;;
35562;SDS011;21665;40.108;18.302;2023-06-19T01:51:36;11.65;;;10.82;;
35562;SDS011;21665;40.108;18.302;2023-06-19T01:54:02;12.45;;;11.35;;
35562;SDS011;21665;40.108;18.302;2023-06-19T01:56:30;12.77;;;11.75;;
35562;SDS011;21665;40.108;18.302;2023-06-19T01:58:57;12.38;;;11.35;;
35562;SDS011;21665;40.108;18.302;2023-06-19T02:01:24;12.85;;;11.95;;
35562;SDS011;21665;40.108;18.302;2023-06-19T02:03:50;13.90;;;12.68;;
35562;SDS011;21665;40.108;18.302;2023-06-19T02:06:17;13.32;;;12.38;;
35562;SDS011;21665;40.108;18.302;2023-06-19T02:08:47;13.57;;;12.63;;
35562;SDS011;21665;40.108;18.302;2023-06-19T02:11:14;13.63;;;12.60;;
35562;SDS011;21665;40.108;18.302;2023-06-19T02:13:41;14.27;;;13.27;;
35562;SDS011;21665;40.108;18.302;2023-06-19T02:16:11;14.60;;;13.50;;
35562;SDS011;21665;40.108;18.302;2023-06-19T02:18:37;15.23;;;14.13;;
35562;SDS011;21665;40.108;18.302;2023-06-19T02:21:03;15.65;;;14.38;;
35562;SDS011;21665;40.108;18.302;2023-06-19T02:23:30;15.10;;;14.13;;
35562;SDS011;21665;40.108;18.302;2023-06-19T02:25:57;16.83;;;15.43;;
35562;SDS011;21665;40.108;18.302;2023-06-19T02:28:23;16.08;;;14.88;;
35562;SDS011;21665;40.108;18.302;2023-06-19T02:30:50;15.93;;;14.63;;
35562;SDS011;21665;40.108;18.302;2023-06-19T02:33:18;15.48;;;14.35;;
35562;SDS011;21665;40.108;18.302;2023-06-19T02:35:45;14.45;;;13.60;;
35562;SDS011;21665;40.108;18.302;2023-06-19T02:38:11;16.27;;;15.05;;
35562;SDS011;21665;40.108;18.302;2023-06-19T02:40:38;16.50;;;15.10;;
35562;SDS011;21665;40.108;18.302;2023-06-19T02:43:05;16.20;;;14.98;;
35562;SDS011;21665;40.108;18.302;2023-06-19T02:45:31;16.80;;;15.38;;
35562;SDS011;21665;40.108;18.302;2023-06-19T02:47:58;16.42;;;15.15;;
35562;SDS011;21665;40.108;18.302;2023-06-19T02:50:24;16.48;;;15.18;;
35562;SDS011;21665;40.108;18.302;2023-06-19T02:52:51;16.63;;;15.38;;
35562;SDS011;21665;40.108;18.302;2023-06-19T02:55:17;16.33;;;15.23;;
35562;SDS011;21665;40.108;18.302;2023-06-19T02:57:44;17.45;;;16.20;;
35562;SDS011;21665;40.108;18.302;2023-06-19T03:00:12;17.75;;;16.45;;
35562;SDS011;21665;40.108;18.302;2023-06-19T03:02:39;17.75;;;16.20;;
35562;SDS011;21665;40.108;18.302;2023-06-19T03:05:09;17.65;;;16.25;;
35562;SDS011;21665;40.108;18.302;2023-06-19T03:07:41;18.45;;;17.00;;
35562;SDS011;21665;40.108;18.302;2023-06-19T03:10:07;18.90;;;17.40;;
35562;SDS011;21665;40.108;18.302;2023-06-19T03:13:01;18.90;;;17.48;;
35562;SDS011;21665;40.108;18.302;2023-06-19T03:19:33;18.60;;;17.25;;
35562;SDS011;21665;40.108;18.302;2023-06-19T03:23:04;18.33;;;16.83;;
35562;SDS011;21665;40.108;18.302;2023-06-19T03:26:09;18.48;;;17.15;;
35562;SDS011;21665;40.108;18.302;2023-06-19T03:29:11;18.80;;;17.02;;
35562;SDS011;21665;40.108;18.302;2023-06-19T03:32:01;18.30;;;16.98;;
35562;SDS011;21665;40.108;18.302;2023-06-19T03:34:31;17.45;;;16.30;;
35562;SDS011;21665;40.108;18.302;2023-06-19T03:36:59;17.65;;;16.23;;
35562;SDS011;21665;40.108;18.302;2023-06-19T03:39:26;18.92;;;17.20;;
35562;SDS011;21665;40.108;18.302;2023-06-19T03:42:01;17.95;;;16.75;;
35562;SDS011;21665;40.108;18.302;2023-06-19T03:44:30;17.80;;;16.60;;
35562;SDS011;21665;40.108;18.302;2023-06-19T03:47:02;18.38;;;17.00;;
35562;SDS011;21665;40.108;18.302;2023-06-19T03:49:29;17.90;;;16.50;;
35562;SDS011;21665;40.108;18.302;2023-06-19T03:54:30;18.42;;;17.08;;
35562;SDS011;21665;40.108;18.302;2023-06-19T04:00:40;18.10;;;16.90;;
35562;SDS011;21665;40.108;18.302;2023-06-19T04:03:13;17.67;;;16.27;;
35562;SDS011;21665;40.108;18.302;2023-06-19T04:05:46;17.85;;;16.63;;
35562;SDS011;21665;40.108;18.302;2023-06-19T04:08:27;18.35;;;16.80;;
35562;SDS011;21665;40.108;18.302;2023-06-19T04:11:17;18.17;;;16.75;;
35562;SDS011;21665;40.108;18.302;2023-06-19T04:13:51;18.83;;;17.58;;
35562;SDS011;21665;40.108;18.302;2023-06-19T04:16:24;19.43;;;17.90;;
35562;SDS011;21665;40.108;18.302;2023-06-19T04:18:50;19.52;;;18.10;;
35562;SDS011;21665;40.108;18.302;2023-06-19T04:21:20;20.23;;;18.83;;
35562;SDS011;21665;40.108;18.302;2023-06-19T04:23:47;19.63;;;18.00;;
35562;SDS011;21665;40.108;18.302;2023-06-19T04:26:27;18.60;;;17.38;;
35562;SDS011;21665;40.108;18.302;2023-06-19T04:29:04;19.60;;;18.20;;
35562;SDS011;21665;40.108;18.302;2023-06-19T04:31:38;21.17;;;19.58;;
35562;SDS011;21665;40.108;18.302;2023-06-19T04:34:10;21.23;;;19.80;;
35562;SDS011;21665;40.108;18.302;2023-06-19T04:36:36;18.00;;;16.88;;
35562;SDS011;21665;40.108;18.302;2023-06-19T04:42:41;17.85;;;16.13;;
35562;SDS011;21665;40.108;18.302;2023-06-19T04:45:38;19.67;;;18.27;;
35562;SDS011;21665;40.108;18.302;2023-06-19T04:48:28;21.88;;;20.48;;
35562;SDS011;21665;40.108;18.302;2023-06-19T04:51:39;22.95;;;21.45;;
35562;SDS011;21665;40.108;18.302;2023-06-19T04:54:24;22.92;;;21.23;;
35562;SDS011;21665;40.108;18.302;2023-06-19T04:57:07;23.27;;;21.70;;
35562;SDS011;21665;40.108;18.302;2023-06-19T04:59:46;23.48;;;21.95;;
35562;SDS011;21665;40.108;18.302;2023-06-19T05:02:26;24.17;;;22.67;;
35562;SDS011;21665;40.108;18.302;2023-06-19T05:05:33;23.70;;;22.20;;
35562;SDS011;21665;40.108;18.302;2023-06-19T05:08:29;24.70;;;22.95;;
35562;SDS011;21665;40.108;18.302;2023-06-19T05:11:12;24.38;;;22.88;;
35562;SDS011;21665;40.108;18.302;2023-06-19T05:14:08;24.88;;;22.95;;
35562;SDS011;21665;40.108;18.302;2023-06-19T05:16:44;24.02;;;22.42;;
35562;SDS011;21665;40.108;18.302;2023-06-19T05:19:25;24.95;;;23.30;;
35562;SDS011;21665;40.108;18.302;2023-06-19T05:21:54;25.48;;;23.67;;
35562;SDS011;21665;40.108;18.302;2023-06-19T05:24:33;25.13;;;23.25;;
35562;SDS011;21665;40.108;18.302;2023-06-19T05:27:26;25.88;;;24.02;;
35562;SDS011;21665;40.108;18.302;2023-06-19T05:30:00;25.48;;;23.55;;
35562;SDS011;21665;40.108;18.302;2023-06-19T05:32:36;25.48;;;23.55;;
35562;SDS011;21665;40.108;18.302;2023-06-19T05:35:02;25.25;;;23.35;;
35562;SDS011;21665;40.108;18.302;2023-06-19T05:37:29;24.63;;;23.02;;
35562;SDS011;21665;40.108;18.302;2023-06-19T05:39:59;25.45;;;23.67;;
35562;SDS011;21665;40.108;18.302;2023-06-19T05:42:25;25.50;;;23.83;;
35562;SDS011;21665;40.108;18.302;2023-06-19T05:44:52;24.80;;;23.20;;
35562;SDS011;21665;40.108;18.302;2023-06-19T05:47:19;25.17;;;23.48;;
35562;SDS011;21665;40.108;18.302;2023-06-19T05:49:46;24.95;;;23.35;;
35562;SDS011;21665;40.108;18.302;2023-06-19T05:55:15;25.37;;;23.70;;
35562;SDS011;21665;40.108;18.302;2023-06-19T05:57:45;26.02;;;24.02;;
35562;SDS011;21665;40.108;18.302;2023-06-19T06:00:15;25.27;;;23.60;;
35562;SDS011;21665;40.108;18.302;2023-06-19T06:02:45;24.73;;;23.13;;
35562;SDS011;21665;40.108;18.302;2023-06-19T06:05:14;24.45;;;22.85;;
35562;SDS011;21665;40.108;18.302;2023-06-19T06:07:45;24.58;;;23.00;;
35562;SDS011;21665;40.108;18.302;2023-06-19T06:10:12;24.50;;;22.88;;
35562;SDS011;21665;40.108;18.302;2023-06-19T06:12:39;24.58;;;22.80;;
35562;SDS011;21665;40.108;18.302;2023-06-19T06:15:06;25.00;;;23.40;;
35562;SDS011;21665;40.108;18.302;2023-06-19T06:17:33;25.00;;;23.20;;
35562;SDS011;21665;40.108;18.302;2023-06-19T06:19:59;25.20;;;23.17;;
35562;SDS011;21665;40.108;18.302;2023-06-19T06:22:26;24.85;;;23.17;;
35562;SDS011;21665;40.108;18.302;2023-06-19T06:24:59;24.80;;;23.00;;
35562;SDS011;21665;40.108;18.302;2023-06-19T06:27:56;25.33;;;23.73;;
35562;SDS011;21665;40.108;18.302;2023-06-19T06:31:01;24.40;;;22.65;;
35562;SDS011;21665;40.108;18.302;2023-06-19T06:33:58;24.10;;;22.50;;
35562;SDS011;21665;40.108;18.302;2023-06-19T06:36:41;24.30;;;22.80;;
35562;SDS011;21665;40.108;18.302;2023-06-19T06:39:08;24.40;;;22.80;;
35562;SDS011;21665;40.108;18.302;2023-06-19T06:41:34;24.08;;;22.38;;
35562;SDS011;21665;40.108;18.302;2023-06-19T06:44:04;24.63;;;22.98;;
35562;SDS011;21665;40.108;18.302;2023-06-19T09:26:39;23.45;;;21.95;;
35562;SDS011;21665;40.108;18.302;2023-06-19T09:48:10;23.73;;;22.13;;
35562;SDS011;21665;40.108;18.302;2023-06-19T11:37:12;23.85;;;22.25;;
35562;SDS011;21665;40.108;18.302;2023-06-19T11:55:08;24.10;;;22.50;;
35562;SDS011;21665;40.108;18.302;2023-06-19T12:40:25;25.30;;;23.70;;
35562;SDS011;21665;40.108;18.302;2023-06-19T14:12:30;26.08;;;24.35;;
35562;SDS011;21665;40.108;18.302;2023-06-19T15:14:24;25.15;;;23.67;;
35562;SDS011;21665;40.108;18.302;2023-06-19T15:16:54;24.73;;;23.10;;
35562;SDS011;21665;40.108;18.302;2023-06-19T15:19:23;24.38;;;22.88;;
35562;SDS011;21665;40.108;18.302;2023-06-19T15:21:50;24.92;;;23.27;;
35562;SDS011;21665;40.108;18.302;2023-06-19T15:30:05;24.50;;;23.10;;
35562;SDS011;21665;40.108;18.302;2023-06-19T15:32:51;25.00;;;23.40;;
35562;SDS011;21665;40.108;18.302;2023-06-19T15:38:55;25.23;;;23.60;;
35562;SDS011;21665;40.108;18.302;2023-06-19T15:45:18;25.20;;;23.60;;
35562;SDS011;21665;40.108;18.302;2023-06-19T15:47:58;24.65;;;23.15;;
35562;SDS011;21665;40.108;18.302;2023-06-19T15:50:35;24.58;;;23.08;;
35562;SDS011;21665;40.108;18.302;2023-06-19T15:53:02;25.50;;;23.73;;
35562;SDS011;21665;40.108;18.302;2023-06-19T15:55:28;25.80;;;24.20;;
35562;SDS011;21665;40.108;18.302;2023-06-19T15:57:55;25.95;;;24.15;;
35562;SDS011;21665;40.108;18.302;2023-06-19T16:00:21;25.88;;;23.90;;
35562;SDS011;21665;40.108;18.302;2023-06-19T16:02:48;24.77;;;23.38;;
35562;SDS011;21665;40.108;18.302;2023-06-19T16:05:14;25.88;;;24.05;;
35562;SDS011;21665;40.108;18.302;2023-06-19T16:07:41;25.40;;;23.85;;
35562;SDS011;21665;40.108;18.302;2023-06-19T16:10:08;25.15;;;23.65;;
35562;SDS011;21665;40.108;18.302;2023-06-19T16:12:43;24.73;;;23.13;;
35562;SDS011;21665;40.108;18.302;2023-06-19T16:15:10;25.27;;;23.67;;
35562;SDS011;21665;40.108;18.302;2023-06-19T16:17:48;25.05;;;23.45;;
35562;SDS011;21665;40.108;18.302;2023-06-19T16:20:19;24.98;;;23.27;;
35562;SDS011;21665;40.108;18.302;2023-06-19T16:23:00;25.52;;;23.92;;
35562;SDS011;21665;40.108;18.302;2023-06-19T16:25:46;24.70;;;23.13;;
35562;SDS011;21665;40.108;18.302;2023-06-19T16:28:20;24.65;;;23.25;;
35562;SDS011;21665;40.108;18.302;2023-06-19T16:41:46;25.40;;;23.80;;
35562;SDS011;21665;40.108;18.302;2023-06-19T16:51:17;24.55;;;23.05;;
35562;SDS011;21665;40.108;18.302;2023-06-19T16:57:40;24.90;;;23.40;;
35562;SDS011;21665;40.108;18.302;2023-06-19T17:00:12;24.67;;;23.08;;
35562;SDS011;21665;40.108;18.302;2023-06-19T17:02:48;25.60;;;23.70;;
35562;SDS011;21665;40.108;18.302;2023-06-19T17:05:22;25.20;;;23.42;;
35562;SDS011;21665;40.108;18.302;2023-06-19T17:15:16;24.55;;;23.05;;
35562;SDS011;21665;40.108;18.302;2023-06-19T17:18:09;24.88;;;23.27;;
35562;SDS011;21665;40.108;18.302;2023-06-19T17:20:57;24.67;;;23.02;;
35562;SDS011;21665;40.108;18.302;2023-06-19T17:23:51;25.63;;;23.83;;
35562;SDS011;21665;40.108;18.302;2023-06-19T17:27:03;25.15;;;23.55;;
35562;SDS011;21665;40.108;18.302;2023-06-19T17:29:32;24.52;;;22.92;;
35562;SDS011;21665;40.108;18.302;2023-06-19T17:32:49;24.70;;;23.10;;
35562;SDS011;21665;40.108;18.302;2023-06-19T17:35:55;24.70;;;23.13;;
35562;SDS011;21665;40.108;18.302;2023-06-19T17:42:21;24.10;;;22.55;;
35562;SDS011;21665;40.108;18.302;2023-06-19T17:57:14;23.50;;;22.10;;
35562;SDS011;21665;40.108;18.302;2023-06-19T18:00:30;23.88;;;22.40;;
35562;SDS011;21665;40.108;18.302;2023-06-19T18:03:16;23.52;;;22.13;;
35562;SDS011;21665;40.108;18.302;2023-06-19T18:06:10;24.20;;;22.30;;
35562;SDS011;21665;40.108;18.302;2023-06-19T18:09:08;23.38;;;21.95;;
35562;SDS011;21665;40.108;18.302;2023-06-19T18:11:58;23.02;;;21.60;;
35562;SDS011;21665;40.108;18.302;2023-06-19T18:15:26;22.65;;;21.23;;
35562;SDS011;21665;40.108;18.302;2023-06-19T18:18:05;22.50;;;21.10;;
35562;SDS011;21665;40.108;18.302;2023-06-19T18:25:05;22.75;;;21.25;;
35562;SDS011;21665;40.108;18.302;2023-06-19T18:27:41;23.10;;;21.60;;
35562;SDS011;21665;40.108;18.302;2023-06-19T18:30:11;23.63;;;22.02;;
35562;SDS011;21665;40.108;18.302;2023-06-19T18:32:49;23.33;;;21.75;;
35562;SDS011;21665;40.108;18.302;2023-06-19T18:35:36;22.90;;;21.40;;
35562;SDS011;21665;40.108;18.302;2023-06-19T18:38:11;23.40;;;21.90;;
35562;SDS011;21665;40.108;18.302;2023-06-19T18:43:30;23.25;;;21.63;;
35562;SDS011;21665;40.108;18.302;2023-06-19T18:45:57;23.98;;;22.38;;
35562;SDS011;21665;40.108;18.302;2023-06-19T18:48:27;23.60;;;21.92;;
35562;SDS011;21665;40.108;18.302;2023-06-19T18:50:53;23.40;;;21.90;;
35562;SDS011;21665;40.108;18.302;2023-06-19T18:53:20;24.00;;;22.30;;
35562;SDS011;21665;40.108;18.302;2023-06-19T18:55:47;23.92;;;22.10;;
35562;SDS011;21665;40.108;18.302;2023-06-19T18:58:15;23.60;;;22.00;;
35562;SDS011;21665;40.108;18.302;2023-06-19T19:00:50;23.70;;;22.20;;
35562;SDS011;21665;40.108;18.302;2023-06-19T19:03:16;23.33;;;21.38;;
35562;SDS011;21665;40.108;18.302;2023-06-19T19:05:43;23.23;;;21.58;;
35562;SDS011;21665;40.108;18.302;2023-06-19T19:08:12;23.48;;;21.88;;
35562;SDS011;21665;40.108;18.302;2023-06-19T19:18:01;23.67;;;21.77;;
35562;SDS011;21665;40.108;18.302;2023-06-19T21:36:22;20.27;;;18.35;;
35562;SDS011;21665;40.108;18.302;2023-06-19T21:38:49;20.45;;;18.75;;
35562;SDS011;21665;40.108;18.302;2023-06-19T21:41:21;20.50;;;18.95;;
35562;SDS011;21665;40.108;18.302;2023-06-19T21:43:47;20.58;;;18.95;;
35562;SDS011;21665;40.108;18.302;2023-06-19T21:46:14;20.25;;;18.85;;
35562;SDS011;21665;40.108;18.302;2023-06-19T21:48:41;21.88;;;19.80;;
35562;SDS011;21665;40.108;18.302;2023-06-19T21:51:07;21.05;;;19.35;;
35562;SDS011;21665;40.108;18.302;2023-06-19T21:53:34;21.08;;;19.33;;
35562;SDS011;21665;40.108;18.302;2023-06-19T21:56:00;20.05;;;18.60;;
35562;SDS011;21665;40.108;18.302;2023-06-19T21:58:28;21.17;;;19.48;;
35562;SDS011;21665;40.108;18.302;2023-06-19T22:00:54;20.90;;;19.23;;
35562;SDS011;21665;40.108;18.302;2023-06-19T22:03:21;20.67;;;19.13;;
35562;SDS011;21665;40.108;18.302;2023-06-19T22:05:47;20.55;;;19.05;;
35562;SDS011;21665;40.108;18.302;2023-06-19T22:08:14;20.67;;;19.15;;
35562;SDS011;21665;40.108;18.302;2023-06-19T22:10:40;20.50;;;18.70;;
35562;SDS011;21665;40.108;18.302;2023-06-19T22:13:07;20.17;;;18.60;;
35562;SDS011;21665;40.108;18.302;2023-06-19T22:15:36;20.95;;;19.20;;
35562;SDS011;21665;40.108;18.302;2023-06-19T22:18:03;20.50;;;18.88;;
35562;SDS011;21665;40.108;18.302;2023-06-19T22:20:29;20.77;;;19.17;;
35562;SDS011;21665;40.108;18.302;2023-06-19T22:22:59;20.77;;;19.20;;
35562;SDS011;21665;40.108;18.302;2023-06-19T22:25:26;21.65;;;19.85;;
35562;SDS011;21665;40.108;18.302;2023-06-19T22:27:52;20.52;;;19.02;;
35562;SDS011;21665;40.108;18.302;2023-06-19T22:30:24;20.77;;;19.10;;
35562;SDS011;21665;40.108;18.302;2023-06-19T22:32:51;20.52;;;18.75;;
35562;SDS011;21665;40.108;18.302;2023-06-19T22:35:17;20.83;;;19.30;;
35562;SDS011;21665;40.108;18.302;2023-06-19T22:37:44;20.05;;;18.65;;
35562;SDS011;21665;40.108;18.302;2023-06-19T22:40:12;20.17;;;18.75;;
35562;SDS011;21665;40.108;18.302;2023-06-19T22:42:39;21.30;;;19.63;;
35562;SDS011;21665;40.108;18.302;2023-06-19T22:45:10;21.40;;;19.77;;
35562;SDS011;21665;40.108;18.302;2023-06-19T22:47:37;21.45;;;19.70;;
35562;SDS011;21665;40.108;18.302;2023-06-19T22:50:04;21.27;;;19.55;;
35562;SDS011;21665;40.108;18.302;2023-06-19T22:52:35;22.25;;;20.35;;
35562;SDS011;21665;40.108;18.302;2023-06-19T22:55:02;21.83;;;20.15;;
35562;SDS011;21665;40.108;18.302;2023-06-19T22:57:29;21.75;;;20.05;;
35562;SDS011;21665;40.108;18.302;2023-06-19T23:00:03;21.60;;;20.00;;
35562;SDS011;21665;40.108;18.302;2023-06-19T23:02:34;22.23;;;20.30;;
35562;SDS011;21665;40.108;18.302;2023-06-19T23:05:09;21.17;;;19.58;;
35562;SDS011;21665;40.108;18.302;2023-06-19T23:07:40;21.55;;;19.67;;
35562;SDS011;21665;40.108;18.302;2023-06-19T23:10:07;21.05;;;19.55;;
35562;SDS011;21665;40.108;18.302;2023-06-19T23:12:34;22.15;;;20.05;;
35562;SDS011;21665;40.108;18.302;2023-06-19T23:15:01;20.98;;;19.40;;
35562;SDS011;21665;40.108;18.302;2023-06-19T23:17:28;21.55;;;19.95;;
35562;SDS011;21665;40.108;18.302;2023-06-19T23:20:00;20.75;;;19.10;;
35562;SDS011;21665;40.108;18.302;2023-06-19T23:22:40;20.85;;;19.42;;
35562;SDS011;21665;40.108;18.302;2023-06-19T23:25:33;22.15;;;20.30;;
35562;SDS011;21665;40.108;18.302;2023-06-19T23:27:59;21.77;;;20.17;;
35562;SDS011;21665;40.108;18.302;2023-06-19T23:30:28;21.75;;;20.15;;
35562;SDS011;21665;40.108;18.302;2023-06-19T23:32:58;22.33;;;20.55;;
35562;SDS011;21665;40.108;18.302;2023-06-19T23:35:25;23.38;;;21.38;;
35562;SDS011;21665;40.108;18.302;2023-06-19T23:37:52;22.98;;;20.92;;
35562;SDS011;21665;40.108;18.302;2023-06-19T23:40:19;23.30;;;21.10;;
35562;SDS011;21665;40.108;18.302;2023-06-19T23:42:49;23.20;;;21.20;;
35562;SDS011;21665;40.108;18.302;2023-06-19T23:47:45;22.85;;;20.83;;
35562;SDS011;21665;40.108;18.302;2023-06-19T23:50:17;22.83;;;20.90;;
